sensor_id;sensor_type;location;lat;lon;timestamp;temperature;humidity
27409;DHT22;20413;50.782;7.152;2022-09-25T00:01:15;13.90;99.90
27409;DHT22;20413;50.782;7.152;2022-09-25T00:03:41;13.80;99.90
27409;DHT22;20413;50.782;7.152;2022-09-25T00:06:09;13.90;99.90
27409;DHT22;20413;50.782;7.152;2022-09-25T00:08:36;13.90;99.90
27409;DHT22;20413;50.782;7.152;2022-09-25T00:11:30;13.90;99.90
27409;DHT22;20413;50.782;7.152;2022-09-25T00:13:58;13.90;99.90
27409;DHT22;20413;50.782;7.152;2022-09-25T00:16:27;13.90;99.90
27409;DHT22;20413;50.782;7.152;2022-09-25T00:18:57;13.90;99.90
27409;DHT22;20413;50.782;7.152;2022-09-25T00:21:42;13.80;99.90
27409;DHT22;20413;50.782;7.152;2022-09-25T00:24:09;13.80;99.90
27409;DHT22;20413;50.782;7.152;2022-09-25T00:26:38;13.80;99.90
27409;DHT22;20413;50.782;7.152;2022-09-25T00:29:05;13.80;99.90
27409;DHT22;20413;50.782;7.152;2022-09-25T00:31:31;13.80;99.90
27409;DHT22;20413;50.782;7.152;2022-09-25T00:33:59;13.80;99.90
27409;DHT22;20413;50.782;7.152;2022-09-25T00:36:25;13.80;99.90
27409;DHT22;20413;50.782;7.152;2022-09-25T00:38:51;13.80;99.90
27409;DHT22;20413;50.782;7.152;2022-09-25T00:41:19;13.80;99.90
27409;DHT22;20413;50.782;7.152;2022-09-25T00:43:51;13.80;99.90
27409;DHT22;20413;50.782;7.152;2022-09-25T00:46:21;13.80;99.90
27409;DHT22;20413;50.782;7.152;2022-09-25T00:48:54;13.80;99.90
27409;DHT22;20413;50.782;7.152;2022-09-25T00:51:24;13.80;99.90
27409;DHT22;20413;50.782;7.152;2022-09-25T00:53:54;13.80;99.90
27409;DHT22;20413;50.782;7.152;2022-09-25T00:56:22;13.70;99.90
27409;DHT22;20413;50.782;7.152;2022-09-25T00:58:48;13.70;99.90
27409;DHT22;20413;50.782;7.152;2022-09-25T01:01:14;13.70;99.90
27409;DHT22;20413;50.782;7.152;2022-09-25T01:03:41;13.70;99.90
27409;DHT22;20413;50.782;7.152;2022-09-25T01:06:07;13.80;99.90
27409;DHT22;20413;50.782;7.152;2022-09-25T01:08:33;13.70;99.90
27409;DHT22;20413;50.782;7.152;2022-09-25T01:10:59;13.70;99.90
27409;DHT22;20413;50.782;7.152;2022-09-25T01:13:25;13.70;99.90
27409;DHT22;20413;50.782;7.152;2022-09-25T01:16:03;13.70;99.90
27409;DHT22;20413;50.782;7.152;2022-09-25T01:24:09;13.70;99.90
27409;DHT22;20413;50.782;7.152;2022-09-25T01:29:30;13.70;99.90
27409;DHT22;20413;50.782;7.152;2022-09-25T01:34:59;13.70;99.90
27409;DHT22;20413;50.782;7.152;2022-09-25T01:40:27;13.70;99.90
27409;DHT22;20413;50.782;7.152;2022-09-25T01:44:04;13.70;99.90
27409;DHT22;20413;50.782;7.152;2022-09-25T01:46:15;13.60;99.90
27409;DHT22;20413;50.782;7.152;2022-09-25T01:48:45;13.70;99.90
27409;DHT22;20413;50.782;7.152;2022-09-25T01:51:15;13.60;99.90
27409;DHT22;20413;50.782;7.152;2022-09-25T01:53:48;13.70;99.90
27409;DHT22;20413;50.782;7.152;2022-09-25T01:56:29;13.70;99.90
27409;DHT22;20413;50.782;7.152;2022-09-25T01:59:37;13.60;99.90
27409;DHT22;20413;50.782;7.152;2022-09-25T02:02:06;13.60;99.90
27409;DHT22;20413;50.782;7.152;2022-09-25T02:04:37;13.60;99.90
27409;DHT22;20413;50.782;7.152;2022-09-25T02:07:10;13.60;99.90
27409;DHT22;20413;50.782;7.152;2022-09-25T02:09:45;13.60;99.90
27409;DHT22;20413;50.782;7.152;2022-09-25T02:12:18;13.60;99.90
27409;DHT22;20413;50.782;7.152;2022-09-25T02:14:52;13.60;99.90
27409;DHT22;20413;50.782;7.152;2022-09-25T02:17:28;13.60;99.90
27409;DHT22;20413;50.782;7.152;2022-09-25T02:20:15;13.60;99.90
27409;DHT22;20413;50.782;7.152;2022-09-25T02:25:47;13.50;99.90
27409;DHT22;20413;50.782;7.152;2022-09-25T02:28:16;13.50;99.90
27409;DHT22;20413;50.782;7.152;2022-09-25T02:30:43;13.50;99.90
27409;DHT22;20413;50.782;7.152;2022-09-25T02:33:10;13.40;99.90
27409;DHT22;20413;50.782;7.152;2022-09-25T02:35:36;13.40;99.90
27409;DHT22;20413;50.782;7.152;2022-09-25T02:38:02;13.40;99.90
27409;DHT22;20413;50.782;7.152;2022-09-25T02:49:58;13.40;99.90
27409;DHT22;20413;50.782;7.152;2022-09-25T02:52:49;13.40;99.90
27409;DHT22;20413;50.782;7.152;2022-09-25T02:55:47;13.40;99.90
27409;DHT22;20413;50.782;7.152;2022-09-25T03:00:51;13.40;99.90
27409;DHT22;20413;50.782;7.152;2022-09-25T03:03:19;13.40;99.90
27409;DHT22;20413;50.782;7.152;2022-09-25T03:05:47;13.30;99.90
27409;DHT22;20413;50.782;7.152;2022-09-25T03:08:13;13.30;99.90
27409;DHT22;20413;50.782;7.152;2022-09-25T03:10:58;13.30;99.90
27409;DHT22;20413;50.782;7.152;2022-09-25T03:13:26;13.40;99.90
27409;DHT22;20413;50.782;7.152;2022-09-25T03:16:07;13.40;99.90
27409;DHT22;20413;50.782;7.152;2022-09-25T03:18:32;13.40;99.90
27409;DHT22;20413;50.782;7.152;2022-09-25T03:20:58;13.30;99.90
27409;DHT22;20413;50.782;7.152;2022-09-25T03:23:24;13.30;99.90
27409;DHT22;20413;50.782;7.152;2022-09-25T03:25:53;13.30;99.90
27409;DHT22;20413;50.782;7.152;2022-09-25T03:28:19;13.30;99.90
27409;DHT22;20413;50.782;7.152;2022-09-25T03:30:55;13.30;99.90
27409;DHT22;20413;50.782;7.152;2022-09-25T03:33:20;13.30;99.90
27409;DHT22;20413;50.782;7.152;2022-09-25T03:35:46;13.30;99.90
27409;DHT22;20413;50.782;7.152;2022-09-25T03:38:11;13.30;99.90
27409;DHT22;20413;50.782;7.152;2022-09-25T03:40:37;13.30;99.90
27409;DHT22;20413;50.782;7.152;2022-09-25T03:43:03;13.30;99.90
27409;DHT22;20413;50.782;7.152;2022-09-25T03:45:28;13.30;99.90
27409;DHT22;20413;50.782;7.152;2022-09-25T03:47:54;13.30;99.90
27409;DHT22;20413;50.782;7.152;2022-09-25T03:50:19;13.30;99.90
27409;DHT22;20413;50.782;7.152;2022-09-25T03:52:45;13.30;99.90
27409;DHT22;20413;50.782;7.152;2022-09-25T03:55:10;13.30;99.90
27409;DHT22;20413;50.782;7.152;2022-09-25T03:57:37;13.30;99.90
27409;DHT22;20413;50.782;7.152;2022-09-25T04:00:04;13.30;99.90
27409;DHT22;20413;50.782;7.152;2022-09-25T04:02:30;13.30;99.90
27409;DHT22;20413;50.782;7.152;2022-09-25T04:04:56;13.30;99.90
27409;DHT22;20413;50.782;7.152;2022-09-25T04:07:21;13.30;99.90
27409;DHT22;20413;50.782;7.152;2022-09-25T04:09:47;13.30;99.90
27409;DHT22;20413;50.782;7.152;2022-09-25T04:12:12;13.30;99.90
27409;DHT22;20413;50.782;7.152;2022-09-25T04:14:39;13.30;99.90
27409;DHT22;20413;50.782;7.152;2022-09-25T04:17:06;13.40;99.90
27409;DHT22;20413;50.782;7.152;2022-09-25T04:19:32;13.40;99.90
27409;DHT22;20413;50.782;7.152;2022-09-25T04:21:58;13.30;99.90
27409;DHT22;20413;50.782;7.152;2022-09-25T04:24:23;13.30;99.90
27409;DHT22;20413;50.782;7.152;2022-09-25T04:27:07;13.30;99.90
27409;DHT22;20413;50.782;7.152;2022-09-25T04:29:33;13.30;99.90
27409;DHT22;20413;50.782;7.152;2022-09-25T04:31:59;13.30;99.90
27409;DHT22;20413;50.782;7.152;2022-09-25T04:34:43;13.30;99.90
27409;DHT22;20413;50.782;7.152;2022-09-25T04:37:09;13.30;99.90
27409;DHT22;20413;50.782;7.152;2022-09-25T04:39:34;13.30;99.90
27409;DHT22;20413;50.782;7.152;2022-09-25T04:42:00;13.30;99.90
27409;DHT22;20413;50.782;7.152;2022-09-25T04:44:25;13.30;99.90
27409;DHT22;20413;50.782;7.152;2022-09-25T04:46:52;13.30;99.90
27409;DHT22;20413;50.782;7.152;2022-09-25T04:49:17;13.20;99.90
27409;DHT22;20413;50.782;7.152;2022-09-25T04:51:43;13.20;99.90
27409;DHT22;20413;50.782;7.152;2022-09-25T04:54:08;13.20;99.90
27409;DHT22;20413;50.782;7.152;2022-09-25T04:56:34;13.20;99.90
27409;DHT22;20413;50.782;7.152;2022-09-25T04:58:59;13.20;99.90
27409;DHT22;20413;50.782;7.152;2022-09-25T05:01:25;13.20;99.90
27409;DHT22;20413;50.782;7.152;2022-09-25T05:03:51;13.10;99.90
27409;DHT22;20413;50.782;7.152;2022-09-25T05:06:18;13.10;99.90
27409;DHT22;20413;50.782;7.152;2022-09-25T05:08:46;13.10;99.90
27409;DHT22;20413;50.782;7.152;2022-09-25T05:11:14;13.10;99.90
27409;DHT22;20413;50.782;7.152;2022-09-25T05:13:39;13.10;99.90
27409;DHT22;20413;50.782;7.152;2022-09-25T05:16:06;13.10;99.90
27409;DHT22;20413;50.782;7.152;2022-09-25T05:18:32;13.10;99.90
27409;DHT22;20413;50.782;7.152;2022-09-25T05:21:02;13.10;99.90
27409;DHT22;20413;50.782;7.152;2022-09-25T05:23:28;13.10;99.90
27409;DHT22;20413;50.782;7.152;2022-09-25T05:25:55;13.10;99.90
27409;DHT22;20413;50.782;7.152;2022-09-25T05:28:27;13.10;99.90
27409;DHT22;20413;50.782;7.152;2022-09-25T05:30:53;13.10;99.90
27409;DHT22;20413;50.782;7.152;2022-09-25T05:33:19;13.20;99.90
27409;DHT22;20413;50.782;7.152;2022-09-25T05:35:45;13.20;99.90
27409;DHT22;20413;50.782;7.152;2022-09-25T05:38:10;13.20;99.90
27409;DHT22;20413;50.782;7.152;2022-09-25T05:40:36;13.20;99.90
27409;DHT22;20413;50.782;7.152;2022-09-25T05:43:03;13.20;99.90
27409;DHT22;20413;50.782;7.152;2022-09-25T05:45:30;13.20;99.90
27409;DHT22;20413;50.782;7.152;2022-09-25T05:48:06;13.10;99.90
27409;DHT22;20413;50.782;7.152;2022-09-25T05:50:32;13.10;99.90
27409;DHT22;20413;50.782;7.152;2022-09-25T05:53:00;13.20;99.90
27409;DHT22;20413;50.782;7.152;2022-09-25T05:55:26;13.20;99.90
27409;DHT22;20413;50.782;7.152;2022-09-25T05:57:52;13.30;99.90
27409;DHT22;20413;50.782;7.152;2022-09-25T06:00:19;13.20;99.90
27409;DHT22;20413;50.782;7.152;2022-09-25T06:02:45;13.20;99.90
27409;DHT22;20413;50.782;7.152;2022-09-25T06:05:10;13.20;99.90
27409;DHT22;20413;50.782;7.152;2022-09-25T06:07:36;13.20;99.90
27409;DHT22;20413;50.782;7.152;2022-09-25T06:10:02;13.20;99.90
27409;DHT22;20413;50.782;7.152;2022-09-25T06:12:28;13.20;99.90
27409;DHT22;20413;50.782;7.152;2022-09-25T06:14:54;13.20;99.90
27409;DHT22;20413;50.782;7.152;2022-09-25T06:17:20;13.20;99.90
27409;DHT22;20413;50.782;7.152;2022-09-25T06:19:46;13.30;99.90
27409;DHT22;20413;50.782;7.152;2022-09-25T06:22:11;13.20;99.90
27409;DHT22;20413;50.782;7.152;2022-09-25T06:24:37;13.20;99.90
27409;DHT22;20413;50.782;7.152;2022-09-25T06:27:05;13.20;99.90
27409;DHT22;20413;50.782;7.152;2022-09-25T06:29:31;13.20;99.90
27409;DHT22;20413;50.782;7.152;2022-09-25T06:31:56;13.30;99.90
27409;DHT22;20413;50.782;7.152;2022-09-25T06:34:22;13.40;99.90
27409;DHT22;20413;50.782;7.152;2022-09-25T06:36:47;13.40;99.90
27409;DHT22;20413;50.782;7.152;2022-09-25T06:39:13;13.50;99.90
27409;DHT22;20413;50.782;7.152;2022-09-25T06:41:39;13.50;99.90
27409;DHT22;20413;50.782;7.152;2022-09-25T06:44:05;13.50;99.90
27409;DHT22;20413;50.782;7.152;2022-09-25T06:46:33;13.40;99.90
27409;DHT22;20413;50.782;7.152;2022-09-25T06:48:59;13.40;99.90
27409;DHT22;20413;50.782;7.152;2022-09-25T06:51:25;13.40;99.90
27409;DHT22;20413;50.782;7.152;2022-09-25T06:53:57;13.40;99.90
27409;DHT22;20413;50.782;7.152;2022-09-25T06:56:23;13.40;99.90
27409;DHT22;20413;50.782;7.152;2022-09-25T06:58:49;13.50;99.90
27409;DHT22;20413;50.782;7.152;2022-09-25T07:01:15;13.50;99.90
27409;DHT22;20413;50.782;7.152;2022-09-25T07:03:40;13.50;99.90
27409;DHT22;20413;50.782;7.152;2022-09-25T07:06:11;13.50;99.90
27409;DHT22;20413;50.782;7.152;2022-09-25T07:08:37;13.50;99.90
27409;DHT22;20413;50.782;7.152;2022-09-25T07:11:03;13.50;99.90
27409;DHT22;20413;50.782;7.152;2022-09-25T07:13:33;13.60;99.90
27409;DHT22;20413;50.782;7.152;2022-09-25T07:16:04;13.60;99.90
27409;DHT22;20413;50.782;7.152;2022-09-25T07:18:30;13.60;99.90
27409;DHT22;20413;50.782;7.152;2022-09-25T07:21:08;13.60;99.90
27409;DHT22;20413;50.782;7.152;2022-09-25T07:23:35;13.60;99.90
27409;DHT22;20413;50.782;7.152;2022-09-25T07:26:21;13.60;99.90
27409;DHT22;20413;50.782;7.152;2022-09-25T07:28:52;13.70;99.90
27409;DHT22;20413;50.782;7.152;2022-09-25T07:31:21;13.70;99.90
27409;DHT22;20413;50.782;7.152;2022-09-25T07:33:47;13.80;99.90
27409;DHT22;20413;50.782;7.152;2022-09-25T07:36:15;14.00;99.90
27409;DHT22;20413;50.782;7.152;2022-09-25T07:38:41;13.90;99.90
27409;DHT22;20413;50.782;7.152;2022-09-25T07:41:09;14.00;99.90
27409;DHT22;20413;50.782;7.152;2022-09-25T07:43:35;14.00;99.90
27409;DHT22;20413;50.782;7.152;2022-09-25T07:46:03;14.10;99.90
27409;DHT22;20413;50.782;7.152;2022-09-25T07:48:29;14.20;99.90
27409;DHT22;20413;50.782;7.152;2022-09-25T07:51:07;14.40;99.90
27409;DHT22;20413;50.782;7.152;2022-09-25T07:53:33;14.40;99.90
27409;DHT22;20413;50.782;7.152;2022-09-25T07:56:00;14.40;99.90
27409;DHT22;20413;50.782;7.152;2022-09-25T07:58:26;14.50;99.90
27409;DHT22;20413;50.782;7.152;2022-09-25T08:00:53;14.60;99.90
27409;DHT22;20413;50.782;7.152;2022-09-25T08:03:19;14.70;99.90
27409;DHT22;20413;50.782;7.152;2022-09-25T08:05:46;14.70;99.90
27409;DHT22;20413;50.782;7.152;2022-09-25T08:08:11;14.40;99.90
27409;DHT22;20413;50.782;7.152;2022-09-25T08:10:37;14.30;99.90
27409;DHT22;20413;50.782;7.152;2022-09-25T08:13:02;14.40;99.90
27409;DHT22;20413;50.782;7.152;2022-09-25T08:15:28;14.40;99.90
27409;DHT22;20413;50.782;7.152;2022-09-25T08:17:54;14.40;99.90
27409;DHT22;20413;50.782;7.152;2022-09-25T08:20:19;14.60;99.90
27409;DHT22;20413;50.782;7.152;2022-09-25T08:22:45;14.70;99.90
27409;DHT22;20413;50.782;7.152;2022-09-25T08:25:12;14.80;99.90
27409;DHT22;20413;50.782;7.152;2022-09-25T08:27:37;14.80;99.90
27409;DHT22;20413;50.782;7.152;2022-09-25T08:30:09;14.90;99.90
27409;DHT22;20413;50.782;7.152;2022-09-25T08:32:35;14.90;99.90
27409;DHT22;20413;50.782;7.152;2022-09-25T08:35:02;14.90;99.90
27409;DHT22;20413;50.782;7.152;2022-09-25T08:37:28;15.00;99.90
27409;DHT22;20413;50.782;7.152;2022-09-25T08:39:57;15.10;99.90
27409;DHT22;20413;50.782;7.152;2022-09-25T08:42:32;15.10;99.90
27409;DHT22;20413;50.782;7.152;2022-09-25T08:45:04;15.10;99.90
27409;DHT22;20413;50.782;7.152;2022-09-25T08:47:52;15.20;99.90
27409;DHT22;20413;50.782;7.152;2022-09-25T08:50:38;15.10;99.90
27409;DHT22;20413;50.782;7.152;2022-09-25T08:53:17;15.20;99.90
27409;DHT22;20413;50.782;7.152;2022-09-25T08:55:44;15.00;99.90
27409;DHT22;20413;50.782;7.152;2022-09-25T08:58:31;15.00;99.90
27409;DHT22;20413;50.782;7.152;2022-09-25T09:01:02;15.00;99.90
27409;DHT22;20413;50.782;7.152;2022-09-25T09:03:31;15.10;99.90
27409;DHT22;20413;50.782;7.152;2022-09-25T09:06:09;15.30;99.90
27409;DHT22;20413;50.782;7.152;2022-09-25T09:08:37;15.80;99.90
27409;DHT22;20413;50.782;7.152;2022-09-25T09:11:11;16.10;99.90
27409;DHT22;20413;50.782;7.152;2022-09-25T09:14:05;16.40;99.90
27409;DHT22;20413;50.782;7.152;2022-09-25T09:16:43;17.20;99.90
27409;DHT22;20413;50.782;7.152;2022-09-25T09:19:10;18.30;99.90
27409;DHT22;20413;50.782;7.152;2022-09-25T09:22:18;18.70;99.90
27409;DHT22;20413;50.782;7.152;2022-09-25T09:25:01;19.00;99.90
27409;DHT22;20413;50.782;7.152;2022-09-25T09:28:03;19.10;99.90
27409;DHT22;20413;50.782;7.152;2022-09-25T09:31:01;19.50;99.90
27409;DHT22;20413;50.782;7.152;2022-09-25T09:33:50;19.00;99.90
27409;DHT22;20413;50.782;7.152;2022-09-25T09:39:03;18.70;99.90
27409;DHT22;20413;50.782;7.152;2022-09-25T09:46:49;18.10;99.90
27409;DHT22;20413;50.782;7.152;2022-09-25T09:54:35;17.70;99.90
27409;DHT22;20413;50.782;7.152;2022-09-25T09:59:51;17.50;99.90
27409;DHT22;20413;50.782;7.152;2022-09-25T10:04:54;17.70;99.90
27409;DHT22;20413;50.782;7.152;2022-09-25T10:07:21;17.60;99.90
27409;DHT22;20413;50.782;7.152;2022-09-25T10:09:48;17.60;99.90
27409;DHT22;20413;50.782;7.152;2022-09-25T10:12:27;17.60;99.90
27409;DHT22;20413;50.782;7.152;2022-09-25T10:14:54;17.80;99.90
27409;DHT22;20413;50.782;7.152;2022-09-25T10:17:21;17.90;99.90
27409;DHT22;20413;50.782;7.152;2022-09-25T10:19:54;18.00;99.90
27409;DHT22;20413;50.782;7.152;2022-09-25T10:22:25;18.20;99.90
27409;DHT22;20413;50.782;7.152;2022-09-25T10:24:56;18.20;99.90
27409;DHT22;20413;50.782;7.152;2022-09-25T10:27:33;18.70;99.90
27409;DHT22;20413;50.782;7.152;2022-09-25T10:30:24;18.70;99.90
27409;DHT22;20413;50.782;7.152;2022-09-25T10:32:59;18.60;99.90
27409;DHT22;20413;50.782;7.152;2022-09-25T10:38:03;20.30;99.90
27409;DHT22;20413;50.782;7.152;2022-09-25T10:40:34;22.20;99.90
27409;DHT22;20413;50.782;7.152;2022-09-25T10:43:18;23.50;99.90
27409;DHT22;20413;50.782;7.152;2022-09-25T10:45:49;24.40;99.90
27409;DHT22;20413;50.782;7.152;2022-09-25T10:48:34;26.00;99.90
27409;DHT22;20413;50.782;7.152;2022-09-25T10:51:18;26.70;99.90
27409;DHT22;20413;50.782;7.152;2022-09-25T10:53:47;27.30;99.00
27409;DHT22;20413;50.782;7.152;2022-09-25T10:56:14;27.00;98.50
27409;DHT22;20413;50.782;7.152;2022-09-25T11:01:13;23.40;99.90
27409;DHT22;20413;50.782;7.152;2022-09-25T11:03:53;22.20;99.90
27409;DHT22;20413;50.782;7.152;2022-09-25T11:06:26;21.10;99.90
27409;DHT22;20413;50.782;7.152;2022-09-25T11:11:26;19.30;99.90
27409;DHT22;20413;50.782;7.152;2022-09-25T11:13:55;19.00;99.90
27409;DHT22;20413;50.782;7.152;2022-09-25T11:16:41;18.80;99.90
27409;DHT22;20413;50.782;7.152;2022-09-25T11:19:14;18.70;99.90
27409;DHT22;20413;50.782;7.152;2022-09-25T11:21:52;18.60;99.90
27409;DHT22;20413;50.782;7.152;2022-09-25T11:24:32;18.30;99.90
27409;DHT22;20413;50.782;7.152;2022-09-25T11:38:24;19.50;99.90
27409;DHT22;20413;50.782;7.152;2022-09-25T11:41:16;19.80;99.90
27409;DHT22;20413;50.782;7.152;2022-09-25T11:49:34;20.30;99.90
27409;DHT22;20413;50.782;7.152;2022-09-25T12:01:14;25.10;99.90
27409;DHT22;20413;50.782;7.152;2022-09-25T12:17:19;25.80;98.20
27409;DHT22;20413;50.782;7.152;2022-09-25T12:28:19;21.20;99.90
27409;DHT22;20413;50.782;7.152;2022-09-25T12:36:30;23.90;99.90
27409;DHT22;20413;50.782;7.152;2022-09-25T12:39:12;25.20;98.30
27409;DHT22;20413;50.782;7.152;2022-09-25T12:42:35;24.80;96.40
27409;DHT22;20413;50.782;7.152;2022-09-25T12:44:50;24.00;97.90
27409;DHT22;20413;50.782;7.152;2022-09-25T12:50:16;23.20;99.90
27409;DHT22;20413;50.782;7.152;2022-09-25T12:52:52;24.30;96.80
27409;DHT22;20413;50.782;7.152;2022-09-25T12:55:28;25.40;95.30
27409;DHT22;20413;50.782;7.152;2022-09-25T13:00:40;26.70;96.10
27409;DHT22;20413;50.782;7.152;2022-09-25T13:03:24;25.40;95.00
27409;DHT22;20413;50.782;7.152;2022-09-25T13:06:09;25.50;95.60
27409;DHT22;20413;50.782;7.152;2022-09-25T13:08:51;26.20;95.50
27409;DHT22;20413;50.782;7.152;2022-09-25T13:13:57;27.50;95.30
27409;DHT22;20413;50.782;7.152;2022-09-25T13:16:23;28.40;92.00
27409;DHT22;20413;50.782;7.152;2022-09-25T13:19:10;28.70;91.90
27409;DHT22;20413;50.782;7.152;2022-09-25T13:21:39;27.00;91.40
27409;DHT22;20413;50.782;7.152;2022-09-25T13:24:10;26.50;92.90
27409;DHT22;20413;50.782;7.152;2022-09-25T13:26:52;26.80;94.00
27409;DHT22;20413;50.782;7.152;2022-09-25T13:29:26;27.70;93.40
27409;DHT22;20413;50.782;7.152;2022-09-25T13:32:12;27.20;90.80
27409;DHT22;20413;50.782;7.152;2022-09-25T13:34:40;28.00;89.40
27409;DHT22;20413;50.782;7.152;2022-09-25T13:37:13;27.90;90.90
27409;DHT22;20413;50.782;7.152;2022-09-25T13:39:45;27.70;90.40
27409;DHT22;20413;50.782;7.152;2022-09-25T13:42:36;28.00;89.60
27409;DHT22;20413;50.782;7.152;2022-09-25T13:45:32;28.20;90.50
27409;DHT22;20413;50.782;7.152;2022-09-25T13:50:37;28.70;85.10
27409;DHT22;20413;50.782;7.152;2022-09-25T13:53:12;28.50;89.70
27409;DHT22;20413;50.782;7.152;2022-09-25T13:58:24;28.90;87.20
27409;DHT22;20413;50.782;7.152;2022-09-25T14:00:53;29.00;90.10
27409;DHT22;20413;50.782;7.152;2022-09-25T14:03:44;28.50;85.30
27409;DHT22;20413;50.782;7.152;2022-09-25T14:06:19;28.80;87.80
27409;DHT22;20413;50.782;7.152;2022-09-25T14:08:46;28.50;89.20
27409;DHT22;20413;50.782;7.152;2022-09-25T14:11:16;27.70;90.60
27409;DHT22;20413;50.782;7.152;2022-09-25T14:13:43;27.00;88.00
27409;DHT22;20413;50.782;7.152;2022-09-25T14:16:44;26.80;87.20
27409;DHT22;20413;50.782;7.152;2022-09-25T14:19:16;26.50;90.90
27409;DHT22;20413;50.782;7.152;2022-09-25T14:21:44;27.40;90.50
27409;DHT22;20413;50.782;7.152;2022-09-25T14:24:27;27.80;91.40
27409;DHT22;20413;50.782;7.152;2022-09-25T14:26:57;28.30;90.40
27409;DHT22;20413;50.782;7.152;2022-09-25T14:29:31;28.00;88.50
27409;DHT22;20413;50.782;7.152;2022-09-25T14:32:37;28.20;88.90
27409;DHT22;20413;50.782;7.152;2022-09-25T14:38:21;27.70;87.00
27409;DHT22;20413;50.782;7.152;2022-09-25T14:43:41;28.50;89.60
27409;DHT22;20413;50.782;7.152;2022-09-25T14:46:10;28.10;87.50
27409;DHT22;20413;50.782;7.152;2022-09-25T14:48:50;27.70;89.50
27409;DHT22;20413;50.782;7.152;2022-09-25T14:51:35;27.30;90.30
27409;DHT22;20413;50.782;7.152;2022-09-25T14:54:06;26.70;88.90
27409;DHT22;20413;50.782;7.152;2022-09-25T14:56:32;26.30;89.40
27409;DHT22;20413;50.782;7.152;2022-09-25T14:59:07;26.10;89.10
27409;DHT22;20413;50.782;7.152;2022-09-25T15:01:35;25.80;91.40
27409;DHT22;20413;50.782;7.152;2022-09-25T15:04:04;25.20;89.80
27409;DHT22;20413;50.782;7.152;2022-09-25T15:06:35;24.30;90.60
27409;DHT22;20413;50.782;7.152;2022-09-25T15:09:01;22.90;92.10
27409;DHT22;20413;50.782;7.152;2022-09-25T15:11:42;21.90;94.00
27409;DHT22;20413;50.782;7.152;2022-09-25T15:14:15;22.30;95.50
27409;DHT22;20413;50.782;7.152;2022-09-25T15:16:42;23.00;94.50
27409;DHT22;20413;50.782;7.152;2022-09-25T15:19:34;23.90;92.70
27409;DHT22;20413;50.782;7.152;2022-09-25T15:22:00;24.40;92.10
27409;DHT22;20413;50.782;7.152;2022-09-25T15:24:29;24.70;92.20
27409;DHT22;20413;50.782;7.152;2022-09-25T15:27:02;24.90;91.30
27409;DHT22;20413;50.782;7.152;2022-09-25T15:29:31;25.10;91.70
27409;DHT22;20413;50.782;7.152;2022-09-25T15:31:58;24.70;91.70
27409;DHT22;20413;50.782;7.152;2022-09-25T15:34:26;24.10;92.20
27409;DHT22;20413;50.782;7.152;2022-09-25T15:36:54;23.60;94.00
27409;DHT22;20413;50.782;7.152;2022-09-25T15:39:40;22.90;94.60
27409;DHT22;20413;50.782;7.152;2022-09-25T15:42:06;22.50;97.30
27409;DHT22;20413;50.782;7.152;2022-09-25T15:44:31;22.90;94.40
27409;DHT22;20413;50.782;7.152;2022-09-25T15:46:58;23.40;95.30
27409;DHT22;20413;50.782;7.152;2022-09-25T15:51:59;24.00;93.90
27409;DHT22;20413;50.782;7.152;2022-09-25T15:54:29;24.10;93.80
27409;DHT22;20413;50.782;7.152;2022-09-25T15:56:56;24.10;94.50
27409;DHT22;20413;50.782;7.152;2022-09-25T15:59:46;24.10;95.40
27409;DHT22;20413;50.782;7.152;2022-09-25T16:02:34;23.50;94.30
27409;DHT22;20413;50.782;7.152;2022-09-25T16:05:29;23.70;93.40
27409;DHT22;20413;50.782;7.152;2022-09-25T16:13:27;23.40;93.20
27409;DHT22;20413;50.782;7.152;2022-09-25T16:15:53;23.00;94.40
27409;DHT22;20413;50.782;7.152;2022-09-25T16:18:24;22.90;94.40
27409;DHT22;20413;50.782;7.152;2022-09-25T16:23:42;22.50;96.60
27409;DHT22;20413;50.782;7.152;2022-09-25T16:26:20;22.30;94.40
27409;DHT22;20413;50.782;7.152;2022-09-25T16:28:53;22.10;94.00
27409;DHT22;20413;50.782;7.152;2022-09-25T16:31:21;21.90;95.90
27409;DHT22;20413;50.782;7.152;2022-09-25T16:33:50;21.80;96.80
27409;DHT22;20413;50.782;7.152;2022-09-25T16:36:17;21.50;95.00
27409;DHT22;20413;50.782;7.152;2022-09-25T16:41:32;21.40;95.50
27409;DHT22;20413;50.782;7.152;2022-09-25T16:47:17;20.90;97.50
27409;DHT22;20413;50.782;7.152;2022-09-25T16:49:43;20.40;98.00
27409;DHT22;20413;50.782;7.152;2022-09-25T16:52:17;19.80;98.40
27409;DHT22;20413;50.782;7.152;2022-09-25T16:54:49;19.40;99.90
27409;DHT22;20413;50.782;7.152;2022-09-25T16:57:21;19.00;99.90
27409;DHT22;20413;50.782;7.152;2022-09-25T16:59:47;18.60;99.90
27409;DHT22;20413;50.782;7.152;2022-09-25T17:02:31;18.20;99.90
27409;DHT22;20413;50.782;7.152;2022-09-25T17:05:01;18.00;99.90
27409;DHT22;20413;50.782;7.152;2022-09-25T17:07:27;17.80;99.90
27409;DHT22;20413;50.782;7.152;2022-09-25T17:09:52;17.50;99.90
27409;DHT22;20413;50.782;7.152;2022-09-25T17:12:20;17.40;99.90
27409;DHT22;20413;50.782;7.152;2022-09-25T17:14:47;17.20;99.90
27409;DHT22;20413;50.782;7.152;2022-09-25T17:17:17;17.00;99.90
27409;DHT22;20413;50.782;7.152;2022-09-25T17:19:43;16.80;99.90
27409;DHT22;20413;50.782;7.152;2022-09-25T17:22:09;16.60;99.90
27409;DHT22;20413;50.782;7.152;2022-09-25T17:24:34;16.50;99.90
27409;DHT22;20413;50.782;7.152;2022-09-25T17:27:00;16.30;99.90
27409;DHT22;20413;50.782;7.152;2022-09-25T17:29:26;16.20;99.90
27409;DHT22;20413;50.782;7.152;2022-09-25T17:31:53;16.00;99.90
27409;DHT22;20413;50.782;7.152;2022-09-25T17:34:22;15.90;99.90
27409;DHT22;20413;50.782;7.152;2022-09-25T17:36:53;15.80;99.90
27409;DHT22;20413;50.782;7.152;2022-09-25T17:39:19;15.70;99.90
27409;DHT22;20413;50.782;7.152;2022-09-25T17:41:45;15.60;99.90
27409;DHT22;20413;50.782;7.152;2022-09-25T17:44:14;15.50;99.90
27409;DHT22;20413;50.782;7.152;2022-09-25T17:46:41;15.30;99.90
27409;DHT22;20413;50.782;7.152;2022-09-25T17:49:06;15.20;99.90
27409;DHT22;20413;50.782;7.152;2022-09-25T17:51:33;15.10;99.90
27409;DHT22;20413;50.782;7.152;2022-09-25T17:53:59;15.00;99.90
27409;DHT22;20413;50.782;7.152;2022-09-25T17:56:27;14.90;99.90
27409;DHT22;20413;50.782;7.152;2022-09-25T17:58:56;14.80;99.90
27409;DHT22;20413;50.782;7.152;2022-09-25T18:01:25;14.80;99.90
27409;DHT22;20413;50.782;7.152;2022-09-25T18:03:53;14.80;99.90
27409;DHT22;20413;50.782;7.152;2022-09-25T18:06:19;14.80;99.90
27409;DHT22;20413;50.782;7.152;2022-09-25T18:08:46;14.70;99.90
27409;DHT22;20413;50.782;7.152;2022-09-25T18:11:13;14.70;99.90
27409;DHT22;20413;50.782;7.152;2022-09-25T18:13:39;14.70;99.90
27409;DHT22;20413;50.782;7.152;2022-09-25T18:16:06;14.70;99.90
27409;DHT22;20413;50.782;7.152;2022-09-25T18:18:36;14.80;99.90
27409;DHT22;20413;50.782;7.152;2022-09-25T18:21:20;14.80;99.90